| time (UTC) | temp C | wind direction | speed KPH | gust KPH | rain 1hr cm | rain 24hr cm | rain mn cm | humidity % | barometer mb |
| 20260508220305 | 17 | 228 | 4.8 | 12.9 | 0.00 | 0.00 | 0.00 | 46 | 1006.5 |
| 20260508215805 | 17 | 256 | 3.2 | 12.9 | 0.00 | 0.00 | 0.00 | 48 | 1006.6 |
| 20260508214806 | 17 | 185 | 1.6 | 8.0 | 0.00 | 0.00 | 0.00 | 51 | 1006.6 |
| 20260508214305 | 17 | 203 | 4.8 | 11.3 | 0.00 | 0.00 | 0.00 | 49 | 1006.6 |
| 20260508213806 | 17 | 200 | 4.8 | 12.9 | 0.00 | 0.00 | 0.00 | 49 | 1006.6 |
| 20260508212806 | 16 | 216 | 3.2 | 9.7 | 0.00 | 0.00 | 0.00 | 48 | 1006.7 |
| 20260508212306 | 17 | 223 | 4.8 | 11.3 | 0.00 | 0.00 | 0.00 | 47 | 1006.8 |
| 20260508211805 | 17 | 265 | 3.2 | 4.8 | 0.00 | 0.00 | 0.00 | 49 | 1006.9 |
| 20260508211305 | 17 | 205 | 1.6 | 4.8 | 0.00 | 0.00 | 0.00 | 48 | 1006.9 |
| 20260508210805 | 17 | 217 | 4.8 | 11.3 | 0.00 | 0.00 | 0.00 | 47 | 1006.9 |
| 20260508210305 | 18 | 252 | 3.2 | 12.9 | 0.00 | 0.00 | 0.00 | 48 | 1006.9 |
| 20260508205805 | 18 | 205 | 4.8 | 11.3 | 0.00 | 0.00 | 0.00 | 46 | 1006.9 |
| 20260508205306 | 18 | 204 | 6.4 | 12.9 | 0.00 | 0.00 | 0.00 | 46 | 1006.8 |
| 20260508204806 | 17 | 59 | 1.6 | 4.8 | 0.00 | 0.00 | 0.00 | 46 | 1006.9 |
| 20260508203805 | 17 | 213 | 1.6 | 4.8 | 0.00 | 0.00 | 0.00 | 47 | 1007.0 |
| 20260508203305 | 17 | 185 | 3.2 | 4.8 | 0.00 | 0.00 | 0.00 | 47 | 1007.1 |
| 20260508202805 | 17 | 257 | 1.6 | 4.8 | 0.00 | 0.00 | 0.00 | 45 | 1007.1 |
| 20260508202307 | 17 | 242 | 3.2 | 9.7 | 0.00 | 0.00 | 0.00 | 44 | 1007.2 |
| 20260508201806 | 17 | 254 | 6.4 | 12.9 | 0.00 | 0.00 | 0.00 | 41 | 1007.3 |
| 20260508201306 | 17 | 267 | 4.8 | 8.0 | 0.00 | 0.00 | 0.00 | 43 | 1007.3 |
| 20260508200805 | 17 | 271 | 3.2 | 11.3 | 0.00 | 0.00 | 0.00 | 51 | 1007.4 |
| 20260508200305 | 17 | 189 | 3.2 | 11.3 | 0.00 | 0.00 | 0.00 | 50 | 1007.5 |
| 20260508195805 | 17 | 204 | 3.2 | 9.7 | 0.00 | 0.00 | 0.00 | 49 | 1007.6 |
| 20260508195306 | 17 | 248 | 4.8 | 11.3 | 0.00 | 0.00 | 0.00 | 48 | 1007.7 |
| 20260508194805 | 17 | 247 | 4.8 | 11.3 | 0.00 | 0.00 | 0.00 | 51 | 1007.9 |
| 20260508194305 | 17 | 209 | 3.2 | 11.3 | 0.00 | 0.00 | 0.00 | 53 | 1007.9 |
| 20260508193805 | 17 | 172 | 6.4 | 12.9 | 0.00 | 0.00 | 0.00 | 51 | 1007.9 |
| 20260508193305 | 16 | 173 | 4.8 | 19.3 | 0.00 | 0.00 | 0.00 | 53 | 1008.0 |
| 20260508192805 | 16 | 185 | 3.2 | 11.3 | 0.00 | 0.00 | 0.00 | 53 | 1008.1 |
| 20260508192306 | 16 | 201 | 3.2 | 9.7 | 0.00 | 0.00 | 0.00 | 52 | 1008.2 |
| 20260508191806 | 16 | 192 | 4.8 | 14.5 | 0.00 | 0.00 | 0.00 | 53 | 1008.2 |
| 20260508190805 | 16 | 208 | 6.4 | 19.3 | 0.00 | 0.00 | 0.00 | 53 | 1008.5 |
| 20260508190305 | 15 | 183 | 1.6 | 11.3 | 0.00 | 0.00 | 0.00 | 53 | 1008.6 |
| 20260508185805 | 15 | 195 | 3.2 | 11.3 | 0.00 | 0.00 | 0.00 | 54 | 1008.7 |
| 20260508185306 | 15 | 188 | 4.8 | 9.7 | 0.00 | 0.00 | 0.00 | 51 | 1008.7 |
| 20260508184305 | 15 | 240 | 1.6 | 4.8 | 0.00 | 0.00 | 0.00 | 54 | 1008.8 |
| 20260508183805 | 15 | 185 | 1.6 | 4.8 | 0.00 | 0.00 | 0.00 | 52 | 1008.8 |
| 20260508182807 | 15 | 171 | 3.2 | 8.0 | 0.00 | 0.00 | 0.00 | 49 | 1009.0 |
| 20260508182306 | 16 | 189 | 3.2 | 8.0 | 0.00 | 0.00 | 0.00 | 47 | 1009.1 |
| 20260508181805 | 16 | 252 | 3.2 | 11.3 | 0.00 | 0.00 | 0.00 | 47 | 1009.1 |
| 20260508181306 | 16 | 202 | 3.2 | 9.7 | 0.00 | 0.00 | 0.00 | 45 | 1009.1 |
| 20260508180806 | 16 | 195 | 8.0 | 16.1 | 0.00 | 0.00 | 0.00 | 45 | 1009.1 |
| 20260508175806 | 16 | 253 | 4.8 | 12.9 | 0.00 | 0.00 | 0.00 | 46 | 1009.1 |
| 20260508175306 | 16 | 194 | 4.8 | 16.1 | 0.00 | 0.00 | 0.00 | 48 | 1009.2 |
| 20260508174805 | 16 | 256 | 4.8 | 11.3 | 0.00 | 0.00 | 0.00 | 50 | 1009.3 |
| 20260508174306 | 15 | 202 | 4.8 | 9.7 | 0.00 | 0.00 | 0.00 | 50 | 1009.5 |
| 20260508173805 | 15 | 193 | 1.6 | 4.8 | 0.00 | 0.00 | 0.00 | 54 | 1009.5 |
| 20260508172805 | 15 | 185 | 3.2 | 11.3 | 0.00 | 0.00 | 0.00 | 52 | 1009.9 |
| 20260508172307 | 15 | 208 | 3.2 | 9.7 | 0.00 | 0.00 | 0.00 | 55 | 1010.0 |
| 20260508171806 | 15 | 232 | 4.8 | 16.1 | 0.00 | 0.00 | 0.00 | 55 | 1010.0 |
| 20260508171305 | 15 | 212 | 8.0 | 19.3 | 0.00 | 0.00 | 0.00 | 56 | 1010.0 |
| 20260508170805 | 15 | 180 | 3.2 | 8.0 | 0.00 | 0.00 | 0.00 | 56 | 1010.1 |
| 20260508170305 | 15 | 105 | 3.2 | 11.3 | 0.00 | 0.00 | 0.00 | 56 | 1010.1 |
| 20260508165306 | 15 | 192 | 4.8 | 14.5 | 0.00 | 0.00 | 0.00 | 58 | 1010.4 |
| 20260508164805 | 15 | 193 | 4.8 | 12.9 | 0.00 | 0.00 | 0.00 | 57 | 1010.5 |
| 20260508163805 | 15 | 196 | 6.4 | 12.9 | 0.00 | 0.00 | 0.00 | 57 | 1010.6 |
| 20260508163305 | 15 | 113 | 3.2 | 11.3 | 0.00 | 0.00 | 0.00 | 57 | 1010.6 |
| 20260508162805 | 15 | 187 | 8.0 | 14.5 | 0.00 | 0.00 | 0.00 | 55 | 1010.8 |
| 20260508162307 | 15 | 194 | 3.2 | 19.3 | 0.00 | 0.00 | 0.00 | 56 | 1010.7 |
| 20260508161805 | 15 | 187 | 6.4 | 19.3 | 0.00 | 0.00 | 0.00 | 55 | 1010.8 |
| 20260508161305 | 15 | 169 | 3.2 | 8.0 | 0.00 | 0.00 | 0.00 | 52 | 1010.9 |
| 20260508160805 | 14 | 89 | 1.6 | 4.8 | 0.00 | 0.00 | 0.00 | 52 | 1010.9 |
| 20260508160305 | 14 | 258 | 3.2 | 9.7 | 0.00 | 0.00 | 0.00 | 50 | 1011.0 |
| 20260508155306 | 15 | 243 | 3.2 | 4.8 | 0.00 | 0.00 | 0.00 | 54 | 1011.0 |
| 20260508154806 | 15 | 246 | 3.2 | 9.7 | 0.00 | 0.00 | 0.00 | 54 | 1011.1 |
| 20260508154305 | 15 | 212 | 1.6 | 4.8 | 0.00 | 0.00 | 0.00 | 56 | 1011.1 |
| 20260508153805 | 15 | 311 | 3.2 | 4.8 | 0.00 | 0.00 | 0.00 | 54 | 1011.2 |
| 20260508153305 | 15 | 291 | 3.2 | 9.7 | 0.00 | 0.00 | 0.00 | 52 | 1011.2 |
| 20260508152805 | 14 | 45 | 1.6 | 4.8 | 0.00 | 0.00 | 0.00 | 54 | 1011.2 |
| 20260508152306 | 14 | 265 | 1.6 | 4.8 | 0.00 | 0.00 | 0.00 | 52 | 1011.1 |
| 20260508151807 | 15 | 243 | 3.2 | 8.0 | 0.00 | 0.00 | 0.00 | 49 | 1011.2 |
| 20260508151305 | 15 | 311 | 3.2 | 4.8 | 0.00 | 0.00 | 0.00 | 50 | 1011.2 |
| 20260508150805 | 15 | 329 | 3.2 | 4.8 | 0.00 | 0.00 | 0.00 | 57 | 1011.2 |
| 20260508145805 | 14 | 358 | 0.0 | 4.8 | 0.00 | 0.00 | 0.00 | 64 | 1011.4 |
| 20260508144806 | 13 | 111 | 1.6 | 4.8 | 0.00 | 0.00 | 0.00 | 60 | 1011.4 |
| 20260508144305 | 13 | 95 | 1.6 | 4.8 | 0.00 | 0.00 | 0.00 | 60 | 1011.4 |
| 20260508143805 | 13 | 19 | 3.2 | 4.8 | 0.00 | 0.00 | 0.00 | 64 | 1011.4 |
| 20260508143305 | 13 | 54 | 1.6 | 4.8 | 0.00 | 0.00 | 0.00 | 68 | 1011.5 |
| 20260508142806 | 12 | 78 | 1.6 | 4.8 | 0.00 | 0.00 | 0.00 | 64 | 1011.6 |
| 20260508142306 | 12 | 36 | 1.6 | 4.8 | 0.00 | 0.00 | 0.00 | 70 | 1011.6 |
| 20260508141805 | 12 | 112 | 1.6 | 3.2 | 0.00 | 0.00 | 0.00 | 69 | 1011.7 |
| 20260508141305 | 12 | 266 | 1.6 | 3.2 | 0.00 | 0.00 | 0.00 | 69 | 1011.7 |
| 20260508140805 | 12 | 266 | 1.6 | 4.8 | 0.00 | 0.00 | 0.00 | 71 | 1011.8 |
| 20260508135805 | 12 | 31 | 1.6 | 4.8 | 0.00 | 0.00 | 0.00 | 72 | 1011.7 |
| 20260508135306 | 12 | 28 | 3.2 | 8.0 | 0.00 | 0.00 | 0.00 | 74 | 1011.7 |
| 20260508134805 | 12 | 131 | 1.6 | 4.8 | 0.00 | 0.00 | 0.00 | 75 | 1011.8 |
| 20260508134305 | 11 | 38 | 1.6 | 4.8 | 0.00 | 0.00 | 0.00 | 80 | 1011.8 |
| 20260508132805 | 11 | 281 | 1.6 | 3.2 | 0.00 | 0.00 | 0.00 | 80 | 1011.9 |
| 20260508132306 | 10 | 281 | 1.6 | 3.2 | 0.00 | 0.00 | 0.00 | 81 | 1011.9 |
| 20260508131806 | 10 | 281 | 0.0 | 3.2 | 0.00 | 0.00 | 0.00 | 81 | 1011.9 |
| 20260508131305 | 10 | 253 | 1.6 | 3.2 | 0.00 | 0.00 | 0.00 | 82 | 1011.9 |
| 20260508130806 | 10 | 288 | 0.0 | 4.8 | 0.00 | 0.00 | 0.00 | 83 | 1011.9 |
| 20260508130305 | 10 | 243 | 3.2 | 8.0 | 0.00 | 0.00 | 0.00 | 84 | 1011.9 |
| 20260508125805 | 10 | 342 | 1.6 | 3.2 | 0.00 | 0.00 | 0.00 | 85 | 1011.9 |
| 20260508125306 | 9 | 341 | 0.0 | 1.6 | 0.00 | 0.00 | 0.00 | 86 | 1011.9 |
| 20260508124805 | 9 | 341 | 1.6 | 3.2 | 0.00 | 0.00 | 0.00 | 87 | 1011.9 |
| 20260508124305 | 8 | 0 | 1.6 | 3.2 | 0.00 | 0.00 | 0.00 | 88 | 1011.9 |
| 20260508123805 | 8 | 33 | 0.0 | 3.2 | 0.00 | 0.00 | 0.00 | 89 | 1011.9 |
| 20260508123305 | 8 | 269 | 0.0 | 0.0 | 0.00 | 0.00 | 0.00 | 90 | 1011.8 |
| 20260508122806 | 8 | 320 | 0.0 | 1.6 | 0.00 | 0.00 | 0.00 | 91 | 1011.7 |
| 20260508122307 | 7 | 284 | 0.0 | 0.0 | 0.00 | 0.00 | 0.00 | 91 | 1011.8 |
| 20260508121805 | 7 | 284 | 0.0 | 0.0 | 0.00 | 0.00 | 0.00 | 92 | 1011.7 |
| 20260508120805 | 6 | 246 | 0.0 | 0.0 | 0.00 | 0.00 | 0.00 | 92 | 1011.6 |
| 20260508115805 | 6 | 246 | 0.0 | 0.0 | 0.00 | 0.00 | 0.00 | 92 | 1011.7 |
| 20260508115306 | 5 | 246 | 0.0 | 0.0 | 0.00 | 0.00 | 0.00 | 92 | 1011.6 |
| 20260508114805 | 5 | 246 | 0.0 | 0.0 | 0.00 | 0.00 | 0.00 | 92 | 1011.6 |
| 20260508113306 | 3 | 246 | 0.0 | 0.0 | 0.00 | 0.00 | 0.00 | 92 | 1011.3 |
| 20260508112805 | 3 | 246 | 0.0 | 0.0 | 0.00 | 0.00 | 0.00 | 92 | 1011.4 |
| 20260508112307 | 3 | 246 | 0.0 | 0.0 | 0.00 | 0.00 | 0.00 | 92 | 1011.4 |
| 20260508111805 | 3 | 246 | 0.0 | 0.0 | 0.00 | 0.00 | 0.00 | 92 | 1011.3 |
| 20260508111305 | 3 | 246 | 0.0 | 0.0 | 0.00 | 0.00 | 0.00 | 92 | 1011.2 |
| 20260508110305 | 3 | 246 | 0.0 | 0.0 | 0.00 | 0.00 | 0.00 | 92 | 1011.0 |
| 20260508105805 | 3 | 246 | 0.0 | 0.0 | 0.00 | 0.00 | 0.00 | 92 | 1011.0 |
| 20260508105306 | 3 | 246 | 0.0 | 0.0 | 0.00 | 0.00 | 0.00 | 92 | 1011.0 |
| 20260508104805 | 3 | 246 | 0.0 | 0.0 | 0.00 | 0.00 | 0.00 | 92 | 1011.0 |
| 20260508104305 | 3 | 246 | 0.0 | 0.0 | 0.00 | 0.00 | 0.00 | 92 | 1011.0 |
| 20260508103805 | 3 | 246 | 0.0 | 0.0 | 0.00 | 0.00 | 0.00 | 92 | 1010.9 |
| 20260508103305 | 3 | 246 | 0.0 | 0.0 | 0.00 | 0.00 | 0.00 | 92 | 1010.9 |
| 20260508102805 | 3 | 246 | 0.0 | 0.0 | 0.00 | 0.00 | 0.00 | 92 | 1010.8 |
| 20260508102306 | 3 | 246 | 0.0 | 0.0 | 0.00 | 0.00 | 0.00 | 92 | 1010.8 |
| 20260508101805 | 3 | 246 | 0.0 | 0.0 | 0.00 | 0.00 | 0.00 | 92 | 1010.8 |
| 20260508101305 | 3 | 246 | 0.0 | 0.0 | 0.00 | 0.00 | 0.00 | 92 | 1010.8 |
| 20260508100305 | 3 | 246 | 0.0 | 0.0 | 0.00 | 0.00 | 0.00 | 92 | 1010.8 |
| 20260508095805 | 3 | 246 | 0.0 | 0.0 | 0.00 | 0.00 | 0.00 | 91 | 1010.9 |
| 20260508095306 | 3 | 246 | 0.0 | 0.0 | 0.00 | 0.00 | 0.00 | 91 | 1010.9 |
| 20260508094806 | 3 | 246 | 0.0 | 0.0 | 0.00 | 0.00 | 0.00 | 91 | 1010.9 |
| 20260508094305 | 3 | 246 | 0.0 | 0.0 | 0.00 | 0.00 | 0.00 | 91 | 1010.9 |
| 20260508093805 | 3 | 246 | 0.0 | 0.0 | 0.00 | 0.00 | 0.00 | 91 | 1010.9 |
| 20260508093305 | 3 | 246 | 0.0 | 0.0 | 0.00 | 0.00 | 0.00 | 91 | 1010.8 |
| 20260508092312 | 4 | 246 | 0.0 | 0.0 | 0.00 | 0.00 | 0.00 | 91 | 1010.8 |
| 20260508090806 | 4 | 246 | 0.0 | 0.0 | 0.00 | 0.00 | 0.00 | 90 | 1010.8 |
| 20260508085307 | 4 | 246 | 0.0 | 0.0 | 0.00 | 0.00 | 0.00 | 90 | 1010.9 |
| 20260508084805 | 5 | 246 | 0.0 | 0.0 | 0.00 | 0.00 | 0.00 | 90 | 1010.9 |
| 20260508084305 | 5 | 246 | 0.0 | 0.0 | 0.00 | 0.00 | 0.00 | 90 | 1010.9 |
| 20260508083805 | 5 | 246 | 0.0 | 0.0 | 0.00 | 0.00 | 0.00 | 90 | 1010.9 |
| 20260508082805 | 5 | 246 | 0.0 | 0.0 | 0.00 | 0.00 | 0.00 | 90 | 1011.0 |
| 20260508082306 | 5 | 246 | 0.0 | 0.0 | 0.00 | 0.00 | 0.00 | 90 | 1011.0 |
| 20260508081805 | 5 | 246 | 0.0 | 0.0 | 0.00 | 0.00 | 0.00 | 90 | 1011.0 |
| 20260508081305 | 5 | 246 | 0.0 | 0.0 | 0.00 | 0.00 | 0.00 | 90 | 1010.9 |
| 20260508080305 | 5 | 246 | 0.0 | 0.0 | 0.00 | 0.00 | 0.00 | 91 | 1011.0 |
| 20260508075805 | 5 | 246 | 0.0 | 0.0 | 0.00 | 0.00 | 0.00 | 91 | 1011.0 |
| 20260508075308 | 5 | 246 | 0.0 | 0.0 | 0.00 | 0.00 | 0.00 | 91 | 1011.2 |
| 20260508074804 | 5 | 246 | 0.0 | 0.0 | 0.00 | 0.00 | 0.00 | 91 | 1011.2 |
| 20260508073805 | 5 | 246 | 0.0 | 0.0 | 0.00 | 0.00 | 0.00 | 91 | 1011.1 |
| 20260508072805 | 5 | 246 | 0.0 | 0.0 | 0.00 | 0.00 | 0.00 | 91 | 1011.3 |
| 20260508072307 | 5 | 246 | 0.0 | 0.0 | 0.00 | 0.00 | 0.00 | 91 | 1011.3 |
| 20260508071805 | 4 | 246 | 0.0 | 0.0 | 0.00 | 0.00 | 0.00 | 90 | 1011.3 |
| 20260508071305 | 4 | 246 | 0.0 | 0.0 | 0.00 | 0.00 | 0.00 | 90 | 1011.4 |
| 20260508070805 | 4 | 246 | 0.0 | 0.0 | 0.00 | 0.00 | 0.00 | 89 | 1011.3 |
| 20260508070306 | 4 | 246 | 0.0 | 0.0 | 0.00 | 0.00 | 0.00 | 89 | 1011.3 |
| 20260508065307 | 4 | 246 | 0.0 | 0.0 | 0.00 | 0.00 | 0.00 | 88 | 1011.3 |
| 20260508064806 | 4 | 246 | 0.0 | 0.0 | 0.00 | 0.00 | 0.00 | 88 | 1011.4 |
| 20260508064305 | 5 | 246 | 0.0 | 0.0 | 0.00 | 0.00 | 0.00 | 88 | 1011.4 |
| 20260508063806 | 5 | 246 | 0.0 | 0.0 | 0.00 | 0.00 | 0.00 | 88 | 1011.4 |
| 20260508063305 | 5 | 246 | 0.0 | 0.0 | 0.00 | 0.00 | 0.00 | 88 | 1011.5 |
| 20260508062805 | 5 | 246 | 0.0 | 0.0 | 0.00 | 0.00 | 0.00 | 87 | 1011.5 |
| 20260508062306 | 5 | 246 | 0.0 | 0.0 | 0.00 | 0.00 | 0.00 | 87 | 1011.4 |
| 20260508061805 | 5 | 246 | 0.0 | 0.0 | 0.00 | 0.00 | 0.00 | 87 | 1011.4 |
| 20260508060806 | 5 | 246 | 0.0 | 0.0 | 0.00 | 0.00 | 0.00 | 87 | 1011.3 |
| 20260508060305 | 5 | 246 | 0.0 | 0.0 | 0.00 | 0.00 | 0.00 | 87 | 1011.4 |
| 20260508055306 | 5 | 246 | 0.0 | 0.0 | 0.00 | 0.00 | 0.00 | 87 | 1011.4 |
| 20260508054805 | 5 | 246 | 0.0 | 0.0 | 0.00 | 0.00 | 0.00 | 87 | 1011.4 |
| 20260508054305 | 5 | 246 | 0.0 | 0.0 | 0.00 | 0.00 | 0.00 | 86 | 1011.5 |
| 20260508053805 | 5 | 246 | 0.0 | 0.0 | 0.00 | 0.00 | 0.00 | 86 | 1011.5 |
| 20260508053305 | 5 | 246 | 0.0 | 0.0 | 0.00 | 0.00 | 0.00 | 86 | 1011.6 |
| 20260508052805 | 5 | 246 | 0.0 | 0.0 | 0.00 | 0.00 | 0.00 | 85 | 1011.6 |
| 20260508051805 | 5 | 246 | 0.0 | 0.0 | 0.00 | 0.00 | 0.00 | 84 | 1011.6 |
| 20260508051305 | 5 | 246 | 0.0 | 0.0 | 0.00 | 0.00 | 0.00 | 83 | 1011.6 |
| 20260508050805 | 5 | 246 | 0.0 | 0.0 | 0.00 | 0.00 | 0.00 | 83 | 1011.6 |
| 20260508050305 | 6 | 246 | 0.0 | 0.0 | 0.00 | 0.00 | 0.00 | 82 | 1011.7 |
| 20260508045307 | 6 | 246 | 0.0 | 0.0 | 0.00 | 0.00 | 0.00 | 82 | 1011.6 |
| 20260508044806 | 6 | 246 | 0.0 | 0.0 | 0.00 | 0.00 | 0.00 | 82 | 1011.6 |
| 20260508044305 | 6 | 246 | 0.0 | 0.0 | 0.00 | 0.00 | 0.00 | 82 | 1011.5 |
| 20260508043805 | 6 | 246 | 0.0 | 0.0 | 0.00 | 0.00 | 0.00 | 81 | 1011.5 |
| 20260508043305 | 6 | 246 | 0.0 | 0.0 | 0.00 | 0.00 | 0.00 | 81 | 1011.5 |
| 20260508042805 | 6 | 246 | 0.0 | 0.0 | 0.00 | 0.00 | 0.00 | 81 | 1011.5 |
| 20260508042307 | 6 | 246 | 0.0 | 0.0 | 0.00 | 0.00 | 0.00 | 81 | 1011.5 |
| 20260508041805 | 7 | 246 | 0.0 | 1.6 | 0.00 | 0.00 | 0.00 | 80 | 1011.4 |
| 20260508041306 | 7 | 246 | 0.0 | 0.0 | 0.00 | 0.00 | 0.00 | 80 | 1011.4 |
| 20260508040827 | 7 | 246 | 0.0 | 0.0 | 0.00 | 0.00 | 0.00 | 80 | 1011.5 |
| 20260508035805 | 7 | 246 | 0.0 | 1.6 | 0.00 | 0.00 | 0.00 | 80 | 1011.5 |
| 20260508035306 | 7 | 246 | 0.0 | 0.0 | 0.00 | 0.00 | 0.00 | 80 | 1011.5 |
| 20260508034805 | 7 | 246 | 0.0 | 0.0 | 0.00 | 0.00 | 0.00 | 80 | 1011.5 |
| 20260508034305 | 7 | 246 | 0.0 | 0.0 | 0.00 | 0.00 | 0.00 | 80 | 1011.5 |
| 20260508033806 | 7 | 246 | 0.0 | 0.0 | 0.00 | 0.00 | 0.00 | 79 | 1011.6 |
| 20260508033305 | 7 | 246 | 0.0 | 0.0 | 0.00 | 0.00 | 0.00 | 79 | 1011.6 |
| 20260508032805 | 7 | 246 | 0.0 | 1.6 | 0.00 | 0.00 | 0.00 | 78 | 1011.6 |
| 20260508032306 | 7 | 246 | 0.0 | 0.0 | 0.00 | 0.00 | 0.00 | 78 | 1011.7 |
| 20260508031805 | 8 | 246 | 0.0 | 0.0 | 0.00 | 0.00 | 0.00 | 76 | 1011.8 |
| 20260508031305 | 8 | 246 | 0.0 | 0.0 | 0.00 | 0.00 | 0.00 | 75 | 1011.8 |
| 20260508030805 | 8 | 246 | 0.0 | 0.0 | 0.00 | 0.00 | 0.00 | 75 | 1011.8 |
| 20260508030305 | 8 | 246 | 0.0 | 0.0 | 0.00 | 0.00 | 0.00 | 75 | 1011.8 |
| 20260508025805 | 8 | 246 | 0.0 | 0.0 | 0.00 | 0.00 | 0.00 | 74 | 1011.9 |
| 20260508025306 | 8 | 246 | 0.0 | 0.0 | 0.00 | 0.00 | 0.00 | 75 | 1012.0 |
| 20260508024805 | 8 | 246 | 0.0 | 0.0 | 0.00 | 0.00 | 0.00 | 74 | 1012.0 |
| 20260508024305 | 8 | 246 | 0.0 | 0.0 | 0.00 | 0.00 | 0.00 | 73 | 1012.0 |
| 20260508023805 | 8 | 246 | 0.0 | 0.0 | 0.00 | 0.00 | 0.00 | 71 | 1012.0 |
| 20260508023305 | 9 | 246 | 0.0 | 4.8 | 0.00 | 0.00 | 0.00 | 71 | 1011.9 |
| 20260508022307 | 9 | 244 | 0.0 | 4.8 | 0.00 | 0.00 | 0.00 | 71 | 1011.8 |
| 20260508021805 | 9 | 235 | 1.6 | 4.8 | 0.00 | 0.00 | 0.00 | 70 | 1011.8 |
| 20260508021305 | 9 | 296 | 4.8 | 11.3 | 0.00 | 0.00 | 0.00 | 69 | 1011.8 |
| 20260508020804 | 9 | 282 | 1.6 | 4.8 | 0.00 | 0.00 | 0.00 | 68 | 1011.9 |
| 20260508020304 | 10 | 270 | 1.6 | 4.8 | 0.00 | 0.00 | 0.00 | 67 | 1011.9 |
| 20260508015805 | 10 | 240 | 0.0 | 4.8 | 0.00 | 0.00 | 0.00 | 66 | 1011.8 |
| 20260508015306 | 10 | 269 | 1.6 | 4.8 | 0.00 | 0.00 | 0.00 | 64 | 1011.9 |
| 20260508014808 | 10 | 247 | 3.2 | 4.8 | 0.00 | 0.00 | 0.00 | 64 | 1011.9 |
| 20260508014306 | 10 | 277 | 3.2 | 11.3 | 0.00 | 0.00 | 0.00 | 62 | 1011.8 |
| 20260508013809 | 10 | 265 | 1.6 | 4.8 | 0.00 | 0.00 | 0.00 | 62 | 1011.7 |
| 20260508013305 | 10 | 244 | 0.0 | 1.6 | 0.00 | 0.00 | 0.00 | 60 | 1011.5 |
| 20260508012805 | 10 | 244 | 1.6 | 4.8 | 0.00 | 0.00 | 0.00 | 59 | 1011.5 |
| 20260508012307 | 10 | 249 | 3.2 | 8.0 | 0.00 | 0.00 | 0.00 | 60 | 1011.4 |
| 20260508011806 | 10 | 300 | 3.2 | 4.8 | 0.00 | 0.00 | 0.00 | 61 | 1011.3 |
| 20260508011306 | 9 | 253 | 1.6 | 9.7 | 0.00 | 0.00 | 0.00 | 62 | 1011.3 |
| 20260508010305 | 10 | 249 | 0.0 | 0.0 | 0.00 | 0.00 | 0.00 | 64 | 1011.1 |
| 20260508005805 | 10 | 249 | 0.0 | 0.0 | 0.00 | 0.00 | 0.00 | 62 | 1011.1 |
| 20260508005306 | 10 | 249 | 0.0 | 0.0 | 0.00 | 0.00 | 0.00 | 63 | 1011.0 |
| 20260508004805 | 10 | 249 | 0.0 | 0.0 | 0.00 | 0.00 | 0.00 | 65 | 1011.0 |
| 20260508004305 | 10 | 249 | 0.0 | 0.0 | 0.00 | 0.00 | 0.00 | 61 | 1010.9 |
| 20260508003804 | 10 | 249 | 0.0 | 0.0 | 0.00 | 0.00 | 0.00 | 61 | 1010.9 |
| 20260508003305 | 10 | 249 | 0.0 | 0.0 | 0.00 | 0.00 | 0.00 | 57 | 1010.9 |
| 20260508002804 | 10 | 249 | 0.0 | 0.0 | 0.00 | 0.00 | 0.00 | 55 | 1010.8 |
| 20260508002307 | 11 | 249 | 0.0 | 0.0 | 0.00 | 0.00 | 0.00 | 53 | 1010.8 |
| 20260508001804 | 11 | 249 | 0.0 | 0.0 | 0.00 | 0.00 | 0.00 | 51 | 1010.8 |
| 20260508001304 | 11 | 249 | 1.6 | 3.2 | 0.00 | 0.00 | 0.00 | 49 | 1010.8 |
| 20260508000805 | 11 | 249 | 0.0 | 3.2 | 0.00 | 0.00 | 0.00 | 49 | 1010.7 |
| 20260508000305 | 11 | 248 | 0.0 | 4.8 | 0.00 | 0.00 | 0.00 | 51 | 1010.8 |
| 20260507235805 | 11 | 278 | 1.6 | 8.0 | 0.00 | 0.00 | 0.00 | 49 | 1010.9 |
| 20260507234805 | 11 | 270 | 3.2 | 4.8 | 0.00 | 0.00 | 0.00 | 47 | 1010.8 |
| 20260507234305 | 11 | 247 | 3.2 | 8.0 | 0.00 | 0.00 | 0.00 | 48 | 1010.8 |
| 20260507233304 | 12 | 295 | 1.6 | 4.8 | 0.00 | 0.00 | 0.00 | 49 | 1010.8 |
| 20260507232806 | 12 | 272 | 1.6 | 4.8 | 0.00 | 0.00 | 0.00 | 47 | 1010.8 |
| 20260507232306 | 12 | 271 | 3.2 | 8.0 | 0.00 | 0.00 | 0.00 | 47 | 1010.9 |
| 20260507231805 | 12 | 274 | 4.8 | 11.3 | 0.00 | 0.00 | 0.00 | 47 | 1010.9 |
| 20260507231305 | 12 | 235 | 3.2 | 8.0 | 0.00 | 0.00 | 0.00 | 47 | 1010.9 |
| 20260507230805 | 12 | 286 | 4.8 | 8.0 | 0.00 | 0.00 | 0.00 | 48 | 1010.9 |
| 20260507230304 | 12 | 259 | 3.2 | 12.9 | 0.00 | 0.00 | 0.00 | 47 | 1011.0 |
| 20260507225805 | 12 | 266 | 3.2 | 8.0 | 0.00 | 0.00 | 0.00 | 47 | 1011.0 |
| 20260507225306 | 12 | 268 | 3.2 | 8.0 | 0.00 | 0.00 | 0.00 | 47 | 1011.1 |
| 20260507224805 | 12 | 262 | 3.2 | 4.8 | 0.00 | 0.00 | 0.00 | 45 | 1011.1 |
| 20260507224305 | 12 | 258 | 3.2 | 9.7 | 0.00 | 0.00 | 0.00 | 47 | 1011.2 |
| 20260507223805 | 12 | 265 | 3.2 | 8.0 | 0.00 | 0.00 | 0.00 | 47 | 1011.2 |
| 20260507223305 | 12 | 297 | 3.2 | 9.7 | 0.00 | 0.00 | 0.00 | 47 | 1011.0 |
| 20260507222805 | 12 | 250 | 3.2 | 8.0 | 0.00 | 0.00 | 0.00 | 49 | 1011.2 |
| 20260507222306 | 12 | 265 | 3.2 | 8.0 | 0.00 | 0.00 | 0.00 | 46 | 1011.2 |
| 20260507221805 | 12 | 275 | 3.2 | 8.0 | 0.00 | 0.00 | 0.00 | 46 | 1011.1 |
| 20260507221305 | 12 | 275 | 3.2 | 9.7 | 0.00 | 0.00 | 0.00 | 45 | 1011.1 |
| 20260507220805 | 12 | 273 | 3.2 | 9.7 | 0.00 | 0.00 | 0.00 | 46 | 1011.2 |